Terminal Aerodrome Forecast
Issued by NWS

Home | Current Version | Previous Version | Text Only | Print | Product List | Glossary On
Versions: 1 2 3 4 5 6 7 8 9 10 11 12 13 14 15 16 17 18 19 20 21 22 23 24
903
FTUS41 KBTV 241737
TAFRUT
TAF
KRUT 241737Z 2418/2518 07014KT 6SM BR VCSH OVC025
     FM242100 03011KT 5SM BR OVC020
     FM242300 36008KT 3SM BR OVC008
      TEMPO 2423/2503 1SM -FZRA BR OVC003
     FM250300 30004KT 3SM -FZRA BR OVC003
     FM250600 30004KT 3SM BR VCSH OVC003
     FM251200 30005KT 6SM BR OVC010=

USA.gov is the U.S. government's official web portal to all federal, state and local government web resources and services.